Startpagina
METAR-TAF:

METAR-TAF

Vliegvelden :

Aeropuerto de Gran Canaria

Gran Canaria, Spanje

breedte: 27-56N, lengte: 015-23W, hoogte: 23 m

Actueel weer

Dit bericht is 15 minuten geleden gemaakt, om 23:30 UTC
Wind 19 kt uit het noorden
Temperatuur 17°C
Vochtigheid 68%
Druk 1022 hPa
Zicht 10 km of meer
Gebroken wolken op 2800 ft

METAR: GCLP 192330Z 01019KT 9999 BKN028 17/11 Q1022 NOSIG

Tijdstip: 23:45 (23:45 UTC)

Verwachting

Dit bericht is 3 uur en het 45 minuten geleden gemaakt, om 20:00 UTC
Verwachting geldig van 19 om 21 UTC tot 20 om 21 UTC
Wind 18 kt uit het noorden
Zicht 10 km of meer
Verspreide wolken op 2500 ft
Kans 30% :
Tijdelijke
van 20 om 09 UTC tot 20 om 21 UTC
Wind 20 kt uit het noorden met uitschieters tot 30 kt

TAF: GCLP 192000Z 1921/2021 36018KT 9999 SCT025 TX21/2014Z TN15/2006Z PROB30 TEMPO 2009/2021 01020G30KT

Waarnemingen en weersverwachtingen van meer dan 4000 vliegvelden (METAR en TAF).

De beschikbare stations zijn de gele en rode punten op de kaart.

Ga met uw muis naar het station om de naam te zien.

Klik dan om waarnemingen en weersverwachtingen te zien.

kaart wijzigen: klik op de groene knoppen met een zwart kruis om in te zoomen, op de groene knop met een streepje om uit te zoomen of op de groene pijlen voor aangrenzende kaarten.


METAR-TAF: